sensor_id;sensor_type;location;lat;lon;timestamp;temperature;humidity
7204;DHT22;3643;52.460;13.322;2024-01-30T00:01:33;3.40;99.90
7204;DHT22;3643;52.460;13.322;2024-01-30T00:04:01;3.40;99.90
7204;DHT22;3643;52.460;13.322;2024-01-30T00:06:29;3.60;99.90
7204;DHT22;3643;52.460;13.322;2024-01-30T00:08:58;3.40;99.90
7204;DHT22;3643;52.460;13.322;2024-01-30T00:11:26;3.30;99.90
7204;DHT22;3643;52.460;13.322;2024-01-30T00:13:55;3.40;99.90
7204;DHT22;3643;52.460;13.322;2024-01-30T00:16:25;3.30;99.90
7204;DHT22;3643;52.460;13.322;2024-01-30T00:18:54;3.30;99.90
7204;DHT22;3643;52.460;13.322;2024-01-30T00:21:23;3.30;99.90
7204;DHT22;3643;52.460;13.322;2024-01-30T00:23:51;3.30;99.90
7204;DHT22;3643;52.460;13.322;2024-01-30T00:26:19;3.30;99.90
7204;DHT22;3643;52.460;13.322;2024-01-30T00:28:47;3.30;99.90
7204;DHT22;3643;52.460;13.322;2024-01-30T00:31:15;3.30;99.90
7204;DHT22;3643;52.460;13.322;2024-01-30T00:33:43;3.30;99.90
7204;DHT22;3643;52.460;13.322;2024-01-30T00:36:13;3.30;99.90
7204;DHT22;3643;52.460;13.322;2024-01-30T00:38:41;3.40;99.90
7204;DHT22;3643;52.460;13.322;2024-01-30T00:41:09;3.20;99.90
7204;DHT22;3643;52.460;13.322;2024-01-30T00:43:37;3.20;99.90
7204;DHT22;3643;52.460;13.322;2024-01-30T00:46:05;3.20;99.90
7204;DHT22;3643;52.460;13.322;2024-01-30T00:48:33;3.20;99.90
7204;DHT22;3643;52.460;13.322;2024-01-30T00:51:01;3.10;99.90
7204;DHT22;3643;52.460;13.322;2024-01-30T00:53:31;3.10;99.90
7204;DHT22;3643;52.460;13.322;2024-01-30T00:55:59;3.10;99.90
7204;DHT22;3643;52.460;13.322;2024-01-30T00:58:26;3.10;99.90
7204;DHT22;3643;52.460;13.322;2024-01-30T01:00:54;3.10;99.90
7204;DHT22;3643;52.460;13.322;2024-01-30T01:03:23;3.00;99.90
7204;DHT22;3643;52.460;13.322;2024-01-30T01:05:51;3.00;99.90
7204;DHT22;3643;52.460;13.322;2024-01-30T01:08:19;3.00;99.90
7204;DHT22;3643;52.460;13.322;2024-01-30T01:10:48;3.00;99.90
7204;DHT22;3643;52.460;13.322;2024-01-30T01:13:16;3.00;99.90
7204;DHT22;3643;52.460;13.322;2024-01-30T01:15:44;2.90;99.90
7204;DHT22;3643;52.460;13.322;2024-01-30T01:18:12;3.00;99.90
7204;DHT22;3643;52.460;13.322;2024-01-30T01:20:40;3.00;99.90
7204;DHT22;3643;52.460;13.322;2024-01-30T01:23:08;3.00;99.90
7204;DHT22;3643;52.460;13.322;2024-01-30T01:25:36;2.90;99.90
7204;DHT22;3643;52.460;13.322;2024-01-30T01:28:06;2.90;99.90
7204;DHT22;3643;52.460;13.322;2024-01-30T01:30:34;2.90;99.90
7204;DHT22;3643;52.460;13.322;2024-01-30T01:33:02;2.80;99.90
7204;DHT22;3643;52.460;13.322;2024-01-30T01:35:30;2.80;99.90
7204;DHT22;3643;52.460;13.322;2024-01-30T01:37:58;2.80;99.90
7204;DHT22;3643;52.460;13.322;2024-01-30T01:40:27;2.70;99.90
7204;DHT22;3643;52.460;13.322;2024-01-30T01:42:55;2.80;99.90
7204;DHT22;3643;52.460;13.322;2024-01-30T01:45:25;2.90;99.90
7204;DHT22;3643;52.460;13.322;2024-01-30T01:47:53;2.80;99.90
7204;DHT22;3643;52.460;13.322;2024-01-30T01:50:22;2.80;99.90
7204;DHT22;3643;52.460;13.322;2024-01-30T01:52:51;2.90;99.90
7204;DHT22;3643;52.460;13.322;2024-01-30T01:55:21;3.10;99.90
7204;DHT22;3643;52.460;13.322;2024-01-30T01:57:52;2.80;99.90
7204;DHT22;3643;52.460;13.322;2024-01-30T02:00:20;2.80;99.90
7204;DHT22;3643;52.460;13.322;2024-01-30T02:02:50;2.80;99.90
7204;DHT22;3643;52.460;13.322;2024-01-30T02:05:21;2.80;99.90
7204;DHT22;3643;52.460;13.322;2024-01-30T02:07:50;2.70;99.90
7204;DHT22;3643;52.460;13.322;2024-01-30T02:10:19;2.70;99.90
7204;DHT22;3643;52.460;13.322;2024-01-30T02:12:48;2.80;99.90
7204;DHT22;3643;52.460;13.322;2024-01-30T02:15:16;2.70;99.90
7204;DHT22;3643;52.460;13.322;2024-01-30T02:17:44;2.70;99.90
7204;DHT22;3643;52.460;13.322;2024-01-30T02:20:14;2.70;99.90
7204;DHT22;3643;52.460;13.322;2024-01-30T02:22:43;2.70;99.90
7204;DHT22;3643;52.460;13.322;2024-01-30T02:25:11;2.60;99.90
7204;DHT22;3643;52.460;13.322;2024-01-30T02:27:39;2.70;99.90
7204;DHT22;3643;52.460;13.322;2024-01-30T02:30:08;2.70;99.90
7204;DHT22;3643;52.460;13.322;2024-01-30T02:32:36;2.70;99.90
7204;DHT22;3643;52.460;13.322;2024-01-30T02:35:05;2.70;99.90
7204;DHT22;3643;52.460;13.322;2024-01-30T02:37:33;2.60;99.90
7204;DHT22;3643;52.460;13.322;2024-01-30T02:40:03;2.60;99.90
7204;DHT22;3643;52.460;13.322;2024-01-30T02:42:31;2.60;99.90
7204;DHT22;3643;52.460;13.322;2024-01-30T02:44:59;2.60;99.90
7204;DHT22;3643;52.460;13.322;2024-01-30T02:47:27;2.60;99.90
7204;DHT22;3643;52.460;13.322;2024-01-30T02:49:55;2.60;99.90
7204;DHT22;3643;52.460;13.322;2024-01-30T02:52:23;2.60;99.90
7204;DHT22;3643;52.460;13.322;2024-01-30T02:54:51;2.60;99.90
7204;DHT22;3643;52.460;13.322;2024-01-30T02:57:20;2.70;99.90
7204;DHT22;3643;52.460;13.322;2024-01-30T02:59:48;2.70;99.90
7204;DHT22;3643;52.460;13.322;2024-01-30T03:02:16;2.70;99.90
7204;DHT22;3643;52.460;13.322;2024-01-30T03:04:45;2.60;99.90
7204;DHT22;3643;52.460;13.322;2024-01-30T03:07:12;2.60;99.90
7204;DHT22;3643;52.460;13.322;2024-01-30T03:09:41;2.60;99.90
7204;DHT22;3643;52.460;13.322;2024-01-30T03:12:10;2.90;99.90
7204;DHT22;3643;52.460;13.322;2024-01-30T03:14:39;2.60;99.90
7204;DHT22;3643;52.460;13.322;2024-01-30T03:17:07;2.60;99.90
7204;DHT22;3643;52.460;13.322;2024-01-30T03:19:35;2.50;99.90
7204;DHT22;3643;52.460;13.322;2024-01-30T03:22:04;2.50;99.90
7204;DHT22;3643;52.460;13.322;2024-01-30T03:24:32;2.50;99.90
7204;DHT22;3643;52.460;13.322;2024-01-30T03:27:00;2.40;99.90
7204;DHT22;3643;52.460;13.322;2024-01-30T03:29:28;2.40;99.90
7204;DHT22;3643;52.460;13.322;2024-01-30T03:31:57;2.40;99.90
7204;DHT22;3643;52.460;13.322;2024-01-30T03:34:25;2.40;99.90
7204;DHT22;3643;52.460;13.322;2024-01-30T03:36:53;2.40;99.90
7204;DHT22;3643;52.460;13.322;2024-01-30T03:39:21;2.40;99.90
7204;DHT22;3643;52.460;13.322;2024-01-30T03:41:49;2.40;99.90
7204;DHT22;3643;52.460;13.322;2024-01-30T03:44:17;2.40;99.90
7204;DHT22;3643;52.460;13.322;2024-01-30T03:46:46;2.30;99.90
7204;DHT22;3643;52.460;13.322;2024-01-30T03:49:15;2.30;99.90
7204;DHT22;3643;52.460;13.322;2024-01-30T03:51:43;2.30;99.90
7204;DHT22;3643;52.460;13.322;2024-01-30T03:54:11;2.30;99.90
7204;DHT22;3643;52.460;13.322;2024-01-30T03:56:39;2.30;99.90
7204;DHT22;3643;52.460;13.322;2024-01-30T03:59:07;2.20;99.90
7204;DHT22;3643;52.460;13.322;2024-01-30T04:01:35;2.20;99.90
7204;DHT22;3643;52.460;13.322;2024-01-30T04:04:03;2.30;99.90
7204;DHT22;3643;52.460;13.322;2024-01-30T04:06:33;2.20;99.90
7204;DHT22;3643;52.460;13.322;2024-01-30T04:09:01;2.20;99.90
7204;DHT22;3643;52.460;13.322;2024-01-30T04:11:30;2.40;99.90
7204;DHT22;3643;52.460;13.322;2024-01-30T04:13:58;2.20;99.90
7204;DHT22;3643;52.460;13.322;2024-01-30T04:16:26;2.20;99.90
7204;DHT22;3643;52.460;13.322;2024-01-30T04:18:54;2.20;99.90
7204;DHT22;3643;52.460;13.322;2024-01-30T04:21:22;2.20;99.90
7204;DHT22;3643;52.460;13.322;2024-01-30T04:23:53;2.20;99.90
7204;DHT22;3643;52.460;13.322;2024-01-30T04:26:21;2.30;99.90
7204;DHT22;3643;52.460;13.322;2024-01-30T04:28:49;2.30;99.90
7204;DHT22;3643;52.460;13.322;2024-01-30T04:31:17;2.30;99.90
7204;DHT22;3643;52.460;13.322;2024-01-30T04:33:45;2.30;99.90
7204;DHT22;3643;52.460;13.322;2024-01-30T04:36:13;2.30;99.90
7204;DHT22;3643;52.460;13.322;2024-01-30T04:38:41;2.30;99.90
7204;DHT22;3643;52.460;13.322;2024-01-30T04:41:11;2.30;99.90
7204;DHT22;3643;52.460;13.322;2024-01-30T04:43:39;2.30;99.90
7204;DHT22;3643;52.460;13.322;2024-01-30T04:46:07;2.40;99.90
7204;DHT22;3643;52.460;13.322;2024-01-30T04:48:35;2.30;99.90
7204;DHT22;3643;52.460;13.322;2024-01-30T04:51:03;2.50;99.90
7204;DHT22;3643;52.460;13.322;2024-01-30T04:53:31;2.30;99.90
7204;DHT22;3643;52.460;13.322;2024-01-30T04:55:59;2.30;99.90
7204;DHT22;3643;52.460;13.322;2024-01-30T04:58:28;2.30;99.90
7204;DHT22;3643;52.460;13.322;2024-01-30T05:00:56;2.30;99.90
7204;DHT22;3643;52.460;13.322;2024-01-30T05:03:25;2.30;99.90
7204;DHT22;3643;52.460;13.322;2024-01-30T05:05:53;2.30;99.90
7204;DHT22;3643;52.460;13.322;2024-01-30T05:08:21;2.40;99.90
7204;DHT22;3643;52.460;13.322;2024-01-30T05:10:49;2.40;99.90
7204;DHT22;3643;52.460;13.322;2024-01-30T05:13:17;2.40;99.90
7204;DHT22;3643;52.460;13.322;2024-01-30T05:15:46;2.40;99.90
7204;DHT22;3643;52.460;13.322;2024-01-30T05:18:14;2.40;99.90
7204;DHT22;3643;52.460;13.322;2024-01-30T05:20:42;2.40;99.90
7204;DHT22;3643;52.460;13.322;2024-01-30T05:23:10;2.40;99.90
7204;DHT22;3643;52.460;13.322;2024-01-30T05:25:38;2.40;99.90
7204;DHT22;3643;52.460;13.322;2024-01-30T05:28:06;2.40;99.90
7204;DHT22;3643;52.460;13.322;2024-01-30T05:30:34;2.60;99.90
7204;DHT22;3643;52.460;13.322;2024-01-30T05:33:04;2.40;99.90
7204;DHT22;3643;52.460;13.322;2024-01-30T05:35:32;2.40;99.90
7204;DHT22;3643;52.460;13.322;2024-01-30T05:38:00;2.40;99.90
7204;DHT22;3643;52.460;13.322;2024-01-30T05:40:28;2.40;99.90
7204;DHT22;3643;52.460;13.322;2024-01-30T05:42:56;2.30;99.90
7204;DHT22;3643;52.460;13.322;2024-01-30T05:45:25;2.40;99.90
7204;DHT22;3643;52.460;13.322;2024-01-30T05:47:53;2.50;99.90
7204;DHT22;3643;52.460;13.322;2024-01-30T05:50:23;2.30;99.90
7204;DHT22;3643;52.460;13.322;2024-01-30T05:52:52;2.30;99.90
7204;DHT22;3643;52.460;13.322;2024-01-30T05:55:20;2.40;99.90
7204;DHT22;3643;52.460;13.322;2024-01-30T05:57:48;2.30;99.90
7204;DHT22;3643;52.460;13.322;2024-01-30T06:00:18;2.30;99.90
7204;DHT22;3643;52.460;13.322;2024-01-30T06:02:46;2.30;99.90
7204;DHT22;3643;52.460;13.322;2024-01-30T06:05:14;2.30;99.90
7204;DHT22;3643;52.460;13.322;2024-01-30T06:07:43;2.20;99.90
7204;DHT22;3643;52.460;13.322;2024-01-30T06:10:11;2.20;99.90
7204;DHT22;3643;52.460;13.322;2024-01-30T06:12:40;2.30;99.90
7204;DHT22;3643;52.460;13.322;2024-01-30T06:15:08;2.30;99.90
7204;DHT22;3643;52.460;13.322;2024-01-30T06:17:38;2.30;99.90
7204;DHT22;3643;52.460;13.322;2024-01-30T06:20:07;2.30;99.90
7204;DHT22;3643;52.460;13.322;2024-01-30T06:22:35;2.30;99.90
7204;DHT22;3643;52.460;13.322;2024-01-30T06:25:04;2.30;99.90
7204;DHT22;3643;52.460;13.322;2024-01-30T06:27:32;2.40;99.90
7204;DHT22;3643;52.460;13.322;2024-01-30T06:30:01;2.60;99.90
7204;DHT22;3643;52.460;13.322;2024-01-30T06:32:29;2.30;99.90
7204;DHT22;3643;52.460;13.322;2024-01-30T06:35:01;2.40;99.90
7204;DHT22;3643;52.460;13.322;2024-01-30T06:37:29;2.40;99.90
7204;DHT22;3643;52.460;13.322;2024-01-30T06:39:57;2.40;99.90
7204;DHT22;3643;52.460;13.322;2024-01-30T06:42:27;2.40;99.90
7204;DHT22;3643;52.460;13.322;2024-01-30T06:44:55;2.40;99.90
7204;DHT22;3643;52.460;13.322;2024-01-30T06:47:23;2.40;99.90
7204;DHT22;3643;52.460;13.322;2024-01-30T06:49:51;2.50;99.90
7204;DHT22;3643;52.460;13.322;2024-01-30T06:52:19;2.40;99.90
7204;DHT22;3643;52.460;13.322;2024-01-30T06:54:47;2.40;99.90
7204;DHT22;3643;52.460;13.322;2024-01-30T06:57:15;2.40;99.90
7204;DHT22;3643;52.460;13.322;2024-01-30T06:59:44;2.50;99.90
7204;DHT22;3643;52.460;13.322;2024-01-30T07:02:12;2.50;99.90
7204;DHT22;3643;52.460;13.322;2024-01-30T07:04:41;2.50;99.90
7204;DHT22;3643;52.460;13.322;2024-01-30T07:07:13;2.60;99.90
7204;DHT22;3643;52.460;13.322;2024-01-30T07:09:42;2.60;99.90
7204;DHT22;3643;52.460;13.322;2024-01-30T07:12:10;2.80;99.90
7204;DHT22;3643;52.460;13.322;2024-01-30T07:14:38;2.60;99.90
7204;DHT22;3643;52.460;13.322;2024-01-30T07:17:07;2.60;99.90
7204;DHT22;3643;52.460;13.322;2024-01-30T07:19:35;2.70;99.90
7204;DHT22;3643;52.460;13.322;2024-01-30T07:22:04;2.70;99.90
7204;DHT22;3643;52.460;13.322;2024-01-30T07:24:32;2.70;99.90
7204;DHT22;3643;52.460;13.322;2024-01-30T07:27:00;2.80;99.90
7204;DHT22;3643;52.460;13.322;2024-01-30T07:29:28;2.80;99.90
7204;DHT22;3643;52.460;13.322;2024-01-30T07:31:56;2.80;99.90
7204;DHT22;3643;52.460;13.322;2024-01-30T07:34:25;2.80;99.90
7204;DHT22;3643;52.460;13.322;2024-01-30T07:36:54;2.90;99.90
7204;DHT22;3643;52.460;13.322;2024-01-30T07:39:22;2.90;99.90
7204;DHT22;3643;52.460;13.322;2024-01-30T07:41:50;2.90;99.90
7204;DHT22;3643;52.460;13.322;2024-01-30T07:44:18;3.00;99.90
7204;DHT22;3643;52.460;13.322;2024-01-30T07:46:46;3.00;99.90
7204;DHT22;3643;52.460;13.322;2024-01-30T07:49:14;3.10;99.90
7204;DHT22;3643;52.460;13.322;2024-01-30T07:51:44;3.30;99.90
7204;DHT22;3643;52.460;13.322;2024-01-30T07:54:12;3.10;99.90
7204;DHT22;3643;52.460;13.322;2024-01-30T07:56:40;3.20;99.90
7204;DHT22;3643;52.460;13.322;2024-01-30T07:59:09;3.20;99.90
7204;DHT22;3643;52.460;13.322;2024-01-30T08:01:38;3.20;99.90
7204;DHT22;3643;52.460;13.322;2024-01-30T08:04:06;3.20;99.90
7204;DHT22;3643;52.460;13.322;2024-01-30T08:06:34;3.30;99.90
7204;DHT22;3643;52.460;13.322;2024-01-30T08:09:03;3.30;99.90
7204;DHT22;3643;52.460;13.322;2024-01-30T08:11:31;3.40;99.90
7204;DHT22;3643;52.460;13.322;2024-01-30T08:13:59;3.40;99.90
7204;DHT22;3643;52.460;13.322;2024-01-30T08:16:27;3.40;99.90
7204;DHT22;3643;52.460;13.322;2024-01-30T08:18:55;3.50;99.90
7204;DHT22;3643;52.460;13.322;2024-01-30T08:21:24;3.50;99.90
7204;DHT22;3643;52.460;13.322;2024-01-30T08:23:52;3.60;99.90
7204;DHT22;3643;52.460;13.322;2024-01-30T08:26:22;3.60;99.90
7204;DHT22;3643;52.460;13.322;2024-01-30T08:28:50;3.60;99.90
7204;DHT22;3643;52.460;13.322;2024-01-30T08:31:20;3.70;99.90
7204;DHT22;3643;52.460;13.322;2024-01-30T08:33:48;3.80;99.90
7204;DHT22;3643;52.460;13.322;2024-01-30T08:36:17;3.90;99.90
7204;DHT22;3643;52.460;13.322;2024-01-30T08:38:45;3.90;99.90
7204;DHT22;3643;52.460;13.322;2024-01-30T08:41:13;4.00;99.90
7204;DHT22;3643;52.460;13.322;2024-01-30T08:43:43;4.20;99.90
7204;DHT22;3643;52.460;13.322;2024-01-30T08:46:11;4.30;99.90
7204;DHT22;3643;52.460;13.322;2024-01-30T08:48:40;4.40;99.90
7204;DHT22;3643;52.460;13.322;2024-01-30T08:51:08;4.40;99.90
7204;DHT22;3643;52.460;13.322;2024-01-30T08:53:37;4.40;99.90
7204;DHT22;3643;52.460;13.322;2024-01-30T08:56:06;4.50;99.90
7204;DHT22;3643;52.460;13.322;2024-01-30T08:58:35;4.50;99.90
7204;DHT22;3643;52.460;13.322;2024-01-30T09:01:05;4.50;99.90
7204;DHT22;3643;52.460;13.322;2024-01-30T09:03:33;4.60;99.90
7204;DHT22;3643;52.460;13.322;2024-01-30T09:06:01;4.70;99.90
7204;DHT22;3643;52.460;13.322;2024-01-30T09:08:29;4.70;99.90
7204;DHT22;3643;52.460;13.322;2024-01-30T09:10:57;4.80;99.90
7204;DHT22;3643;52.460;13.322;2024-01-30T09:13:25;4.80;99.90
7204;DHT22;3643;52.460;13.322;2024-01-30T09:15:54;4.80;99.90
7204;DHT22;3643;52.460;13.322;2024-01-30T09:18:24;4.90;99.90
7204;DHT22;3643;52.460;13.322;2024-01-30T09:20:52;4.90;99.90
7204;DHT22;3643;52.460;13.322;2024-01-30T09:23:19;4.90;99.90
7204;DHT22;3643;52.460;13.322;2024-01-30T09:25:48;5.00;99.90
7204;DHT22;3643;52.460;13.322;2024-01-30T09:28:17;5.10;99.90
7204;DHT22;3643;52.460;13.322;2024-01-30T09:30:45;5.20;99.90
7204;DHT22;3643;52.460;13.322;2024-01-30T09:33:13;5.20;99.90
7204;DHT22;3643;52.460;13.322;2024-01-30T09:35:43;5.20;99.90
7204;DHT22;3643;52.460;13.322;2024-01-30T09:38:11;5.30;99.90
7204;DHT22;3643;52.460;13.322;2024-01-30T09:40:39;5.30;99.90
7204;DHT22;3643;52.460;13.322;2024-01-30T09:43:10;5.40;99.90
7204;DHT22;3643;52.460;13.322;2024-01-30T09:45:45;5.50;99.90
7204;DHT22;3643;52.460;13.322;2024-01-30T09:48:15;5.00;99.90
7204;DHT22;3643;52.460;13.322;2024-01-30T09:50:45;5.60;99.90
7204;DHT22;3643;52.460;13.322;2024-01-30T09:53:13;5.60;99.90
7204;DHT22;3643;52.460;13.322;2024-01-30T09:55:43;5.70;99.90
7204;DHT22;3643;52.460;13.322;2024-01-30T09:58:12;5.80;99.90
7204;DHT22;3643;52.460;13.322;2024-01-30T10:00:40;5.90;99.90
7204;DHT22;3643;52.460;13.322;2024-01-30T10:03:08;6.00;99.90
7204;DHT22;3643;52.460;13.322;2024-01-30T10:05:36;6.00;99.90
7204;DHT22;3643;52.460;13.322;2024-01-30T10:08:08;6.10;99.90
7204;DHT22;3643;52.460;13.322;2024-01-30T10:10:36;6.10;99.90
7204;DHT22;3643;52.460;13.322;2024-01-30T10:13:04;6.20;99.90
7204;DHT22;3643;52.460;13.322;2024-01-30T10:15:33;6.30;99.90
7204;DHT22;3643;52.460;13.322;2024-01-30T10:18:02;6.20;99.90
7204;DHT22;3643;52.460;13.322;2024-01-30T10:20:33;6.30;99.90
7204;DHT22;3643;52.460;13.322;2024-01-30T10:23:02;6.40;99.90
7204;DHT22;3643;52.460;13.322;2024-01-30T10:25:32;6.50;99.90
7204;DHT22;3643;52.460;13.322;2024-01-30T10:28:00;6.60;99.90
7204;DHT22;3643;52.460;13.322;2024-01-30T10:30:28;6.70;99.90
7204;DHT22;3643;52.460;13.322;2024-01-30T10:32:56;6.80;99.90
7204;DHT22;3643;52.460;13.322;2024-01-30T10:35:25;6.90;99.90
7204;DHT22;3643;52.460;13.322;2024-01-30T10:37:55;6.90;99.90
7204;DHT22;3643;52.460;13.322;2024-01-30T10:40:28;6.90;99.90
7204;DHT22;3643;52.460;13.322;2024-01-30T10:43:00;6.90;99.90
7204;DHT22;3643;52.460;13.322;2024-01-30T10:45:31;6.90;99.90
7204;DHT22;3643;52.460;13.322;2024-01-30T10:47:59;6.90;99.90
7204;DHT22;3643;52.460;13.322;2024-01-30T10:50:30;7.20;99.90
7204;DHT22;3643;52.460;13.322;2024-01-30T10:53:00;7.10;99.90
7204;DHT22;3643;52.460;13.322;2024-01-30T10:55:29;6.90;99.90
7204;DHT22;3643;52.460;13.322;2024-01-30T10:58:00;6.90;99.90
7204;DHT22;3643;52.460;13.322;2024-01-30T11:00:28;7.00;99.90
7204;DHT22;3643;52.460;13.322;2024-01-30T11:02:56;7.00;99.90
7204;DHT22;3643;52.460;13.322;2024-01-30T11:05:25;7.00;99.90
7204;DHT22;3643;52.460;13.322;2024-01-30T11:07:59;7.00;99.90
7204;DHT22;3643;52.460;13.322;2024-01-30T11:10:45;7.00;99.90
7204;DHT22;3643;52.460;13.322;2024-01-30T11:13:15;7.00;99.90
7204;DHT22;3643;52.460;13.322;2024-01-30T11:15:43;7.00;99.90
7204;DHT22;3643;52.460;13.322;2024-01-30T11:18:11;7.20;99.90
7204;DHT22;3643;52.460;13.322;2024-01-30T11:20:46;7.20;99.90
7204;DHT22;3643;52.460;13.322;2024-01-30T11:23:15;7.00;99.90
7204;DHT22;3643;52.460;13.322;2024-01-30T11:25:43;7.00;99.90
7204;DHT22;3643;52.460;13.322;2024-01-30T11:28:15;7.10;99.90
7204;DHT22;3643;52.460;13.322;2024-01-30T11:30:43;7.10;99.90
7204;DHT22;3643;52.460;13.322;2024-01-30T11:33:14;7.10;99.90
7204;DHT22;3643;52.460;13.322;2024-01-30T11:35:43;7.10;99.90
7204;DHT22;3643;52.460;13.322;2024-01-30T11:38:14;7.20;99.90
7204;DHT22;3643;52.460;13.322;2024-01-30T11:40:44;7.20;99.90
7204;DHT22;3643;52.460;13.322;2024-01-30T11:43:12;7.20;99.90
7204;DHT22;3643;52.460;13.322;2024-01-30T11:45:41;7.50;99.90
7204;DHT22;3643;52.460;13.322;2024-01-30T11:48:11;7.80;99.90
7204;DHT22;3643;52.460;13.322;2024-01-30T11:50:40;7.50;99.90
7204;DHT22;3643;52.460;13.322;2024-01-30T11:53:08;7.60;99.90
7204;DHT22;3643;52.460;13.322;2024-01-30T11:55:37;7.80;99.90
7204;DHT22;3643;52.460;13.322;2024-01-30T11:58:05;7.90;99.90
7204;DHT22;3643;52.460;13.322;2024-01-30T12:00:33;8.40;99.90
7204;DHT22;3643;52.460;13.322;2024-01-30T12:03:04;8.10;99.90
7204;DHT22;3643;52.460;13.322;2024-01-30T12:05:35;8.10;99.90
7204;DHT22;3643;52.460;13.322;2024-01-30T12:08:14;8.20;99.90
7204;DHT22;3643;52.460;13.322;2024-01-30T12:10:43;8.10;99.90
7204;DHT22;3643;52.460;13.322;2024-01-30T12:13:11;8.20;99.90
7204;DHT22;3643;52.460;13.322;2024-01-30T12:15:39;8.20;99.90
7204;DHT22;3643;52.460;13.322;2024-01-30T12:18:09;8.10;99.90
7204;DHT22;3643;52.460;13.322;2024-01-30T12:20:37;8.00;99.90
7204;DHT22;3643;52.460;13.322;2024-01-30T12:23:05;8.10;99.90
7204;DHT22;3643;52.460;13.322;2024-01-30T12:25:33;8.10;99.90
7204;DHT22;3643;52.460;13.322;2024-01-30T12:28:02;8.10;99.90
7204;DHT22;3643;52.460;13.322;2024-01-30T12:30:31;8.00;99.90
7204;DHT22;3643;52.460;13.322;2024-01-30T12:32:59;8.00;99.90
7204;DHT22;3643;52.460;13.322;2024-01-30T12:35:30;8.00;99.90
7204;DHT22;3643;52.460;13.322;2024-01-30T12:37:59;7.90;99.90
7204;DHT22;3643;52.460;13.322;2024-01-30T12:40:28;7.90;99.90
7204;DHT22;3643;52.460;13.322;2024-01-30T12:42:56;8.00;99.90
7204;DHT22;3643;52.460;13.322;2024-01-30T12:45:25;8.00;99.90
7204;DHT22;3643;52.460;13.322;2024-01-30T12:47:53;8.00;99.90
7204;DHT22;3643;52.460;13.322;2024-01-30T12:50:22;8.00;99.90
7204;DHT22;3643;52.460;13.322;2024-01-30T12:52:52;8.10;99.90
7204;DHT22;3643;52.460;13.322;2024-01-30T12:55:20;8.10;99.90
7204;DHT22;3643;52.460;13.322;2024-01-30T12:57:48;8.10;99.90
7204;DHT22;3643;52.460;13.322;2024-01-30T13:00:16;8.10;99.90
7204;DHT22;3643;52.460;13.322;2024-01-30T13:02:44;8.10;99.90
7204;DHT22;3643;52.460;13.322;2024-01-30T13:05:13;8.10;99.90
7204;DHT22;3643;52.460;13.322;2024-01-30T13:07:41;8.10;99.90
7204;DHT22;3643;52.460;13.322;2024-01-30T13:10:10;8.10;99.90
7204;DHT22;3643;52.460;13.322;2024-01-30T13:12:39;8.00;99.90
7204;DHT22;3643;52.460;13.322;2024-01-30T13:15:07;8.00;99.90
7204;DHT22;3643;52.460;13.322;2024-01-30T13:17:35;8.00;99.90
7204;DHT22;3643;52.460;13.322;2024-01-30T13:20:04;8.20;99.90
7204;DHT22;3643;52.460;13.322;2024-01-30T13:22:38;8.10;99.90
7204;DHT22;3643;52.460;13.322;2024-01-30T13:25:07;8.10;99.90
7204;DHT22;3643;52.460;13.322;2024-01-30T13:27:37;8.10;99.90
7204;DHT22;3643;52.460;13.322;2024-01-30T13:30:07;8.10;99.90
7204;DHT22;3643;52.460;13.322;2024-01-30T13:32:36;8.10;99.90
7204;DHT22;3643;52.460;13.322;2024-01-30T13:35:04;8.10;99.90
7204;DHT22;3643;52.460;13.322;2024-01-30T13:37:33;8.20;99.90
7204;DHT22;3643;52.460;13.322;2024-01-30T13:40:01;8.20;99.90
7204;DHT22;3643;52.460;13.322;2024-01-30T13:42:32;8.20;99.90
7204;DHT22;3643;52.460;13.322;2024-01-30T13:45:02;8.20;99.90
7204;DHT22;3643;52.460;13.322;2024-01-30T13:47:30;8.20;99.90
7204;DHT22;3643;52.460;13.322;2024-01-30T13:49:58;8.30;99.90
7204;DHT22;3643;52.460;13.322;2024-01-30T13:52:26;8.40;99.90
7204;DHT22;3643;52.460;13.322;2024-01-30T13:55:04;8.50;99.90
7204;DHT22;3643;52.460;13.322;2024-01-30T13:57:32;8.60;99.90
7204;DHT22;3643;52.460;13.322;2024-01-30T14:00:04;8.60;99.90
7204;DHT22;3643;52.460;13.322;2024-01-30T14:02:33;8.50;99.90
7204;DHT22;3643;52.460;13.322;2024-01-30T14:05:02;8.40;99.90
7204;DHT22;3643;52.460;13.322;2024-01-30T14:07:31;8.40;99.90
7204;DHT22;3643;52.460;13.322;2024-01-30T14:10:00;8.40;99.90
7204;DHT22;3643;52.460;13.322;2024-01-30T14:12:30;8.30;99.90
7204;DHT22;3643;52.460;13.322;2024-01-30T14:14:58;8.40;99.90
7204;DHT22;3643;52.460;13.322;2024-01-30T14:17:29;8.30;99.90
7204;DHT22;3643;52.460;13.322;2024-01-30T14:19:58;8.30;99.90
7204;DHT22;3643;52.460;13.322;2024-01-30T14:22:26;8.30;99.90
7204;DHT22;3643;52.460;13.322;2024-01-30T14:24:54;8.30;99.90
7204;DHT22;3643;52.460;13.322;2024-01-30T14:27:23;8.40;99.90
7204;DHT22;3643;52.460;13.322;2024-01-30T14:29:51;8.40;99.90
7204;DHT22;3643;52.460;13.322;2024-01-30T14:32:19;8.30;99.90
7204;DHT22;3643;52.460;13.322;2024-01-30T14:34:48;8.30;99.90
7204;DHT22;3643;52.460;13.322;2024-01-30T14:37:16;8.30;99.90
7204;DHT22;3643;52.460;13.322;2024-01-30T14:39:44;8.30;99.90
7204;DHT22;3643;52.460;13.322;2024-01-30T14:42:12;8.60;99.90
7204;DHT22;3643;52.460;13.322;2024-01-30T14:44:41;8.40;99.90
7204;DHT22;3643;52.460;13.322;2024-01-30T14:47:09;8.30;99.90
7204;DHT22;3643;52.460;13.322;2024-01-30T14:49:37;8.30;99.90
7204;DHT22;3643;52.460;13.322;2024-01-30T14:52:06;8.30;99.90
7204;DHT22;3643;52.460;13.322;2024-01-30T14:54:37;8.30;99.90
7204;DHT22;3643;52.460;13.322;2024-01-30T14:57:05;8.30;99.90
7204;DHT22;3643;52.460;13.322;2024-01-30T14:59:34;8.30;99.90
7204;DHT22;3643;52.460;13.322;2024-01-30T15:02:03;8.30;99.90
7204;DHT22;3643;52.460;13.322;2024-01-30T15:04:31;8.20;99.90
7204;DHT22;3643;52.460;13.322;2024-01-30T15:06:59;8.20;99.90
7204;DHT22;3643;52.460;13.322;2024-01-30T15:09:29;8.10;99.90
7204;DHT22;3643;52.460;13.322;2024-01-30T15:11:58;8.10;99.90
7204;DHT22;3643;52.460;13.322;2024-01-30T15:14:26;8.00;99.90
7204;DHT22;3643;52.460;13.322;2024-01-30T15:16:54;7.90;99.90
7204;DHT22;3643;52.460;13.322;2024-01-30T15:19:22;7.90;99.90
7204;DHT22;3643;52.460;13.322;2024-01-30T15:21:50;7.90;99.90
7204;DHT22;3643;52.460;13.322;2024-01-30T15:24:18;7.80;99.90
7204;DHT22;3643;52.460;13.322;2024-01-30T15:26:52;7.80;99.90
7204;DHT22;3643;52.460;13.322;2024-01-30T15:29:20;7.80;99.90
7204;DHT22;3643;52.460;13.322;2024-01-30T15:31:49;7.80;99.90
7204;DHT22;3643;52.460;13.322;2024-01-30T15:34:17;7.80;99.90
7204;DHT22;3643;52.460;13.322;2024-01-30T15:36:45;7.80;99.90
7204;DHT22;3643;52.460;13.322;2024-01-30T15:39:15;7.60;99.90
7204;DHT22;3643;52.460;13.322;2024-01-30T15:41:44;7.60;99.90
7204;DHT22;3643;52.460;13.322;2024-01-30T15:44:13;7.50;99.90
7204;DHT22;3643;52.460;13.322;2024-01-30T15:46:41;7.50;99.90
7204;DHT22;3643;52.460;13.322;2024-01-30T15:49:09;7.50;99.90
7204;DHT22;3643;52.460;13.322;2024-01-30T15:51:37;7.50;99.90
7204;DHT22;3643;52.460;13.322;2024-01-30T15:54:05;7.40;99.90
7204;DHT22;3643;52.460;13.322;2024-01-30T15:56:33;7.40;99.90
7204;DHT22;3643;52.460;13.322;2024-01-30T15:59:01;7.40;99.90
7204;DHT22;3643;52.460;13.322;2024-01-30T16:01:30;7.40;99.90
7204;DHT22;3643;52.460;13.322;2024-01-30T16:03:59;7.30;99.90
7204;DHT22;3643;52.460;13.322;2024-01-30T16:06:27;7.30;99.90
7204;DHT22;3643;52.460;13.322;2024-01-30T16:08:55;7.20;99.90
7204;DHT22;3643;52.460;13.322;2024-01-30T16:11:23;7.20;99.90